Terminal Aerodrome Forecast
Issued by NWS

Home | Current Version | Previous Version | Text Only | Print | Product List | Glossary On
Versions: 1 2 3 4 5 6 7 8 9 10 11 12 13 14 15 16
227
FTUS44 KMAF 251120
TAFCNM
TAF
KCNM 251120Z 2512/2612 31006KT P6SM BKN120
     FM251400 34012KT P6SM SCT080 BKN100
     FM252000 01016G26KT 4SM TSRA BR BKN030CB=

USA.gov is the U.S. government's official web portal to all federal, state and local government web resources and services.